createdAt,value
2018-09-03T00:01:42.285Z,18.20
2018-09-03T00:04:11.327Z,18.00
2018-09-03T00:06:40.432Z,17.90
2018-09-03T00:09:10.567Z,17.70
2018-09-03T00:11:39.726Z,17.70
2018-09-03T00:14:08.777Z,17.50
2018-09-03T00:16:37.947Z,17.50
2018-09-03T00:19:07.198Z,17.30
2018-09-03T00:21:36.239Z,17.20
2018-09-03T00:24:05.325Z,17.10
2018-09-03T00:26:34.359Z,17.00
2018-09-03T00:29:03.432Z,17.00
2018-09-03T00:31:37.852Z,16.90
2018-09-03T00:34:12.268Z,16.80
2018-09-03T00:36:46.517Z,16.70
2018-09-03T00:39:21.076Z,16.60
2018-09-03T00:41:55.842Z,16.60
2018-09-03T00:44:30.323Z,16.50
2018-09-03T00:47:01.667Z,16.40
2018-09-03T00:49:31.478Z,16.40
2018-09-03T00:52:00.969Z,16.40
2018-09-03T00:54:30.398Z,16.40
2018-09-03T00:56:59.881Z,16.30
2018-09-03T00:59:29.382Z,16.30
2018-09-03T01:01:58.635Z,16.20
2018-09-03T01:04:27.941Z,16.20
2018-09-03T01:06:57.257Z,16.10
2018-09-03T01:09:26.434Z,16.00
2018-09-03T01:11:55.516Z,15.90
2018-09-03T01:14:24.877Z,15.90
2018-09-03T01:16:54.219Z,15.80
2018-09-03T01:19:23.794Z,15.80
2018-09-03T01:21:52.942Z,15.80
2018-09-03T01:24:22.128Z,15.80
2018-09-03T01:26:51.357Z,15.80
2018-09-03T01:29:20.603Z,15.80
2018-09-03T01:31:51.863Z,15.80
2018-09-03T01:34:20.980Z,15.80
2018-09-03T01:36:50.123Z,15.80
2018-09-03T01:39:19.148Z,15.70
2018-09-03T01:41:48.223Z,15.70
2018-09-03T01:44:17.262Z,15.70
2018-09-03T01:46:46.345Z,15.70
2018-09-03T01:49:15.460Z,15.70
2018-09-03T01:51:44.647Z,15.70
2018-09-03T01:54:13.815Z,15.60
2018-09-03T01:56:43.211Z,15.60
2018-09-03T01:59:12.519Z,15.60
2018-09-03T02:01:41.763Z,15.70
2018-09-03T02:04:11.213Z,15.70
2018-09-03T02:06:40.566Z,15.80
2018-09-03T02:09:11.336Z,15.90
2018-09-03T02:11:41.060Z,15.90
2018-09-03T02:14:10.123Z,16.00
2018-09-03T02:16:39.655Z,16.10
2018-09-03T02:19:09.195Z,16.10
2018-09-03T02:21:38.375Z,16.20
2018-09-03T02:24:07.659Z,16.20
2018-09-03T02:26:36.780Z,16.20
2018-09-03T02:29:05.903Z,16.30
2018-09-03T02:31:34.991Z,16.40
2018-09-03T02:34:04.262Z,16.40
2018-09-03T02:36:33.284Z,16.50
2018-09-03T02:39:02.639Z,16.60
2018-09-03T02:41:31.690Z,16.70
2018-09-03T02:44:00.983Z,16.70
2018-09-03T02:46:30.191Z,16.80
2018-09-03T02:48:59.451Z,16.80
2018-09-03T02:51:28.656Z,16.90
2018-09-03T02:53:58.012Z,16.90
2018-09-03T02:56:27.969Z,16.90
2018-09-03T02:58:57.071Z,16.90
2018-09-03T03:01:26.364Z,16.80
2018-09-03T03:03:55.460Z,16.90
2018-09-03T03:06:24.768Z,16.90
2018-09-03T03:08:54.531Z,16.90
2018-09-03T03:11:23.728Z,16.90
2018-09-03T03:13:53.030Z,16.90
2018-09-03T03:16:22.254Z,16.90
2018-09-03T03:18:51.624Z,16.90
2018-09-03T03:21:20.859Z,16.90
2018-09-03T03:23:50.184Z,16.90
2018-09-03T03:26:19.427Z,16.90
2018-09-03T03:28:48.908Z,16.90
2018-09-03T03:31:18.006Z,16.90
2018-09-03T03:33:47.284Z,16.80
2018-09-03T03:36:16.603Z,16.80
2018-09-03T03:38:45.887Z,16.80
2018-09-03T03:41:15.122Z,16.70
2018-09-03T03:43:44.439Z,16.70
2018-09-03T03:46:14.650Z,16.70
2018-09-03T03:48:44.467Z,16.70
2018-09-03T03:51:13.585Z,16.70
2018-09-03T03:53:42.660Z,16.70
2018-09-03T03:56:11.699Z,16.70
2018-09-03T03:58:41.107Z,16.70
2018-09-03T04:01:10.305Z,16.70
2018-09-03T04:03:39.549Z,16.70
2018-09-03T04:06:08.984Z,16.60
2018-09-03T04:08:38.307Z,16.60
2018-09-03T04:11:07.716Z,16.50
2018-09-03T04:13:37.119Z,16.50
2018-09-03T04:16:06.540Z,16.40
2018-09-03T04:18:35.667Z,16.30
2018-09-03T04:21:05.003Z,16.20
2018-09-03T04:23:34.628Z,16.10
2018-09-03T04:26:03.902Z,16.00
2018-09-03T04:28:33.149Z,15.90
2018-09-03T04:31:02.295Z,15.80
2018-09-03T04:33:31.526Z,15.70
2018-09-03T04:36:02.041Z,15.70
2018-09-03T04:38:31.363Z,15.70
2018-09-03T04:41:00.348Z,15.70
2018-09-03T04:43:29.576Z,15.70
2018-09-03T04:45:58.644Z,15.80
2018-09-03T04:48:27.984Z,15.90
2018-09-03T04:50:57.208Z,15.90
2018-09-03T04:53:26.651Z,16.00
2018-09-03T04:55:55.909Z,16.00
2018-09-03T04:58:25.339Z,16.00
2018-09-03T05:00:54.549Z,16.10
2018-09-03T05:03:23.951Z,16.10
2018-09-03T05:05:53.444Z,16.20
2018-09-03T05:08:22.669Z,16.30
2018-09-03T05:10:51.988Z,16.40
2018-09-03T05:13:21.420Z,16.40
2018-09-03T05:15:50.978Z,16.50
2018-09-03T05:18:20.480Z,16.50
2018-09-03T05:20:49.839Z,16.60
2018-09-03T05:23:19.987Z,16.70
2018-09-03T05:25:49.164Z,16.80
2018-09-03T05:28:18.531Z,16.80
2018-09-03T05:30:47.883Z,16.90
2018-09-03T05:33:17.509Z,16.90
2018-09-03T05:35:46.877Z,16.90
2018-09-03T05:38:16.457Z,16.90
2018-09-03T05:40:45.719Z,17.00
2018-09-03T05:43:15.121Z,17.10
2018-09-03T05:45:44.589Z,17.10
2018-09-03T05:48:14.015Z,17.10
2018-09-03T05:50:43.600Z,17.20
2018-09-03T05:53:12.947Z,17.20
2018-09-03T05:55:42.424Z,17.30
2018-09-03T05:58:11.876Z,17.40
2018-09-03T06:00:41.401Z,17.40
2018-09-03T06:03:11.088Z,17.40
2018-09-03T06:05:40.435Z,17.50
2018-09-03T06:08:10.035Z,17.60
2018-09-03T06:10:39.408Z,17.60
2018-09-03T06:13:08.798Z,17.70
2018-09-03T06:15:38.272Z,17.70
2018-09-03T06:18:07.450Z,17.80
2018-09-03T06:20:36.792Z,17.90
2018-09-03T06:23:06.196Z,18.00
2018-09-03T06:25:35.855Z,18.00
2018-09-03T06:28:05.183Z,18.00
2018-09-03T06:30:34.612Z,18.20
2018-09-03T06:33:04.112Z,18.40
2018-09-03T06:35:33.572Z,18.50
2018-09-03T06:38:03.032Z,18.60
2018-09-03T06:40:32.582Z,18.70
2018-09-03T06:43:02.175Z,18.70
2018-09-03T06:45:31.933Z,18.60
2018-09-03T06:48:01.395Z,18.60
2018-09-03T06:50:31.007Z,18.50
2018-09-03T06:53:00.217Z,18.50
2018-09-03T06:55:29.692Z,18.50
2018-09-03T06:57:58.835Z,18.50
2018-09-03T07:00:28.051Z,18.40
2018-09-03T07:02:57.295Z,18.40
2018-09-03T07:05:26.876Z,18.40
2018-09-03T07:07:56.192Z,18.50
2018-09-03T07:10:25.546Z,18.50
2018-09-03T07:12:55.004Z,18.50
2018-09-03T07:15:24.512Z,18.40
2018-09-03T07:17:54.059Z,18.30
2018-09-03T07:20:23.575Z,18.20
2018-09-03T07:22:52.971Z,18.00
2018-09-03T07:25:22.240Z,17.80
2018-09-03T07:27:51.634Z,17.70
2018-09-03T07:30:21.226Z,17.60
2018-09-03T07:32:50.651Z,17.50
2018-09-03T07:35:20.004Z,17.40
2018-09-03T07:37:49.263Z,17.40
2018-09-03T07:40:19.011Z,17.50
2018-09-03T07:42:48.662Z,17.40
2018-09-03T07:45:17.952Z,17.50
2018-09-03T07:47:47.334Z,17.50
2018-09-03T07:50:16.779Z,17.60
2018-09-03T07:52:45.924Z,17.70
2018-09-03T07:55:15.298Z,17.90
2018-09-03T07:57:44.388Z,18.10
2018-09-03T08:00:13.778Z,18.20
2018-09-03T08:02:42.989Z,18.30
2018-09-03T08:05:12.131Z,18.40
2018-09-03T08:07:41.356Z,18.50
2018-09-03T08:10:10.731Z,18.60
2018-09-03T08:12:40.267Z,18.60
2018-09-03T08:15:09.658Z,18.70
2018-09-03T08:17:39.028Z,18.70
2018-09-03T08:20:08.483Z,18.70
2018-09-03T08:22:37.626Z,18.80
2018-09-03T08:25:06.987Z,18.80
2018-09-03T08:27:36.200Z,18.90
2018-09-03T08:30:06.748Z,19.00
2018-09-03T08:32:35.773Z,18.90
2018-09-03T08:35:04.935Z,19.00
2018-09-03T08:37:34.284Z,19.20
2018-09-03T08:40:03.498Z,19.40
2018-09-03T08:42:32.689Z,19.60
2018-09-03T08:45:02.231Z,20.10
2018-09-03T08:47:31.697Z,20.50
2018-09-03T08:50:00.979Z,21.10
2018-09-03T08:52:30.446Z,21.70
2018-09-03T08:54:59.669Z,22.10
2018-09-03T08:57:28.754Z,22.20
2018-09-03T08:59:58.180Z,22.40
2018-09-03T09:02:27.507Z,22.20
2018-09-03T09:04:56.587Z,21.90
2018-09-03T09:07:25.771Z,21.80
2018-09-03T09:09:55.296Z,21.70
2018-09-03T09:12:24.925Z,21.70
2018-09-03T09:14:54.079Z,21.60
2018-09-03T09:17:23.636Z,21.70
2018-09-03T09:19:53.012Z,21.70
2018-09-03T09:22:22.181Z,21.60
2018-09-03T09:24:51.501Z,21.60
2018-09-03T09:27:21.124Z,21.90
2018-09-03T09:29:50.379Z,22.40
2018-09-03T09:32:19.683Z,23.20
2018-09-03T09:34:49.027Z,23.90
2018-09-03T09:37:18.675Z,24.20
2018-09-03T09:39:47.784Z,24.50
2018-09-03T09:42:17.265Z,24.80
2018-09-03T09:44:46.591Z,24.70
2018-09-03T09:47:16.044Z,24.10
2018-09-03T09:49:45.314Z,23.70
2018-09-03T09:52:14.568Z,23.30
2018-09-03T09:54:44.047Z,23.00
2018-09-03T09:57:13.304Z,22.90
2018-09-03T09:59:42.531Z,22.80
2018-09-03T10:02:12.221Z,22.80
2018-09-03T10:04:41.581Z,22.60
2018-09-03T10:07:11.023Z,22.50
2018-09-03T10:09:40.492Z,22.30
2018-09-03T10:12:09.801Z,22.10
2018-09-03T10:14:39.199Z,22.20
2018-09-03T10:17:08.340Z,22.30
2018-09-03T10:19:37.839Z,22.10
2018-09-03T10:22:07.161Z,22.20
2018-09-03T10:24:36.632Z,22.50
2018-09-03T10:27:05.931Z,22.80
2018-09-03T10:29:35.280Z,23.00
2018-09-03T10:32:04.707Z,23.30
2018-09-03T10:34:34.007Z,23.90
2018-09-03T10:37:03.655Z,24.30
2018-09-03T10:39:33.568Z,24.90
2018-09-03T10:42:02.977Z,24.80
2018-09-03T10:44:32.536Z,24.60
2018-09-03T10:47:02.115Z,24.70
2018-09-03T10:49:31.345Z,24.90
2018-09-03T10:52:00.607Z,25.10
2018-09-03T10:54:30.148Z,25.20
2018-09-03T10:56:59.648Z,25.20
2018-09-03T10:59:28.958Z,24.70
2018-09-03T11:01:58.115Z,24.70
2018-09-03T11:04:27.464Z,24.20
2018-09-03T11:06:56.647Z,24.20
2018-09-03T11:09:26.195Z,24.00
2018-09-03T11:11:55.671Z,23.70
2018-09-03T11:14:24.957Z,23.40
2018-09-03T11:16:54.307Z,23.40
2018-09-03T11:19:26.173Z,23.20
2018-09-03T11:21:55.356Z,23.30
2018-09-03T11:24:24.415Z,23.30
2018-09-03T11:26:53.506Z,23.30
2018-09-03T11:29:22.549Z,23.20
2018-09-03T11:31:51.626Z,23.30
2018-09-03T11:34:20.815Z,23.20
2018-09-03T11:36:49.869Z,23.30
2018-09-03T11:39:18.997Z,23.30
2018-09-03T11:41:48.272Z,23.20
2018-09-03T11:44:17.680Z,23.20
2018-09-03T11:46:46.772Z,23.30
2018-09-03T11:49:16.162Z,23.50
2018-09-03T11:51:45.745Z,23.50
2018-09-03T11:54:15.085Z,23.40
2018-09-03T11:56:44.613Z,23.30
2018-09-03T11:59:13.939Z,23.10
2018-09-03T12:01:43.358Z,22.90
2018-09-03T12:04:12.630Z,23.20
2018-09-03T12:06:42.074Z,23.20
2018-09-03T12:09:12.110Z,23.20
2018-09-03T12:11:41.577Z,23.20
2018-09-03T12:14:18.487Z,23.40
2018-09-03T12:16:47.927Z,23.90
2018-09-03T12:19:17.290Z,24.00
2018-09-03T12:21:46.729Z,24.50
2018-09-03T12:24:16.381Z,24.50
2018-09-03T12:26:45.916Z,24.40
2018-09-03T12:29:15.057Z,24.30
2018-09-03T12:31:44.536Z,24.40
2018-09-03T12:34:13.974Z,24.30
2018-09-03T12:36:43.176Z,24.40
2018-09-03T12:39:12.448Z,24.50
2018-09-03T12:41:41.951Z,24.70
2018-09-03T12:44:11.270Z,24.80
2018-09-03T12:46:40.616Z,24.70
2018-09-03T12:49:10.331Z,25.00
2018-09-03T12:51:39.612Z,25.10
2018-09-03T12:54:08.900Z,25.20
2018-09-03T12:56:38.378Z,25.10
2018-09-03T12:59:07.581Z,25.20
2018-09-03T13:01:36.759Z,25.30
2018-09-03T13:04:05.919Z,25.50
2018-09-03T13:06:35.205Z,25.70
2018-09-03T13:09:06.436Z,25.80
2018-09-03T13:11:35.543Z,25.80
2018-09-03T13:14:04.655Z,25.80
2018-09-03T13:16:33.897Z,25.60
2018-09-03T13:19:03.025Z,25.70
2018-09-03T13:21:32.218Z,25.80
2018-09-03T13:24:01.376Z,26.00
2018-09-03T13:26:30.749Z,25.90
2018-09-03T13:29:00.188Z,25.70
2018-09-03T13:31:29.774Z,25.50
2018-09-03T13:33:59.147Z,25.40
2018-09-03T13:36:29.203Z,25.20
2018-09-03T13:38:58.229Z,25.00
2018-09-03T13:41:27.622Z,24.90
2018-09-03T13:43:56.860Z,24.90
2018-09-03T13:46:26.363Z,24.80
2018-09-03T13:48:55.740Z,24.60
2018-09-03T13:51:24.963Z,24.50
2018-09-03T13:53:54.500Z,24.30
2018-09-03T13:56:24.072Z,24.10
2018-09-03T13:58:53.153Z,23.80
2018-09-03T14:01:22.307Z,23.70
2018-09-03T14:03:51.575Z,23.50
2018-09-03T14:06:21.042Z,23.40
2018-09-03T14:08:50.420Z,23.20
2018-09-03T14:11:19.743Z,23.10
2018-09-03T14:13:49.136Z,22.90
2018-09-03T14:16:18.759Z,22.90
2018-09-03T14:18:48.163Z,23.00
2018-09-03T14:21:17.559Z,23.00
2018-09-03T14:23:47.515Z,23.00
2018-09-03T14:26:16.743Z,23.00
2018-09-03T14:28:46.494Z,23.00
2018-09-03T14:31:15.719Z,23.20
2018-09-03T14:33:45.524Z,23.10
2018-09-03T14:36:14.897Z,23.10
2018-09-03T14:38:44.091Z,23.00
2018-09-03T14:41:13.586Z,23.00
2018-09-03T14:43:43.018Z,23.10
2018-09-03T14:46:12.481Z,23.10
2018-09-03T14:48:41.952Z,23.00
2018-09-03T14:51:11.166Z,22.90
2018-09-03T14:53:40.832Z,22.80
2018-09-03T14:56:10.381Z,22.60
2018-09-03T14:58:39.639Z,22.50
2018-09-03T15:01:08.933Z,22.50
2018-09-03T15:03:38.164Z,22.40
2018-09-03T15:06:07.474Z,22.30
2018-09-03T15:08:36.848Z,22.20
2018-09-03T15:11:06.350Z,22.10
2018-09-03T15:13:35.815Z,22.20
2018-09-03T15:16:05.985Z,22.20
2018-09-03T15:18:35.417Z,22.20
2018-09-03T15:21:04.693Z,22.30
2018-09-03T15:23:33.927Z,22.20
2018-09-03T15:26:03.058Z,22.20
2018-09-03T15:28:32.224Z,22.10
2018-09-03T15:31:01.487Z,22.10
2018-09-03T15:33:30.585Z,22.10
2018-09-03T15:35:59.701Z,22.10
2018-09-03T15:38:28.858Z,22.10
2018-09-03T15:40:58.053Z,22.10
2018-09-03T15:43:27.277Z,22.20
2018-09-03T15:45:56.402Z,22.20
2018-09-03T15:48:25.936Z,22.20
2018-09-03T15:50:55.153Z,22.20
2018-09-03T15:53:25.392Z,22.30
2018-09-03T15:55:54.551Z,22.20
2018-09-03T15:58:24.780Z,22.20
2018-09-03T16:00:53.902Z,22.20
2018-09-03T16:03:23.163Z,22.20
2018-09-03T16:05:52.333Z,22.20
2018-09-03T16:08:21.743Z,22.30
2018-09-03T16:10:51.116Z,22.20
2018-09-03T16:13:20.276Z,22.20
2018-09-03T16:15:49.430Z,22.20
2018-09-03T16:18:18.628Z,22.10
2018-09-03T16:20:47.993Z,22.10
2018-09-03T16:23:17.478Z,22.10
2018-09-03T16:25:46.832Z,22.10
2018-09-03T16:28:16.012Z,22.10
2018-09-03T16:30:45.683Z,22.20
2018-09-03T16:33:14.932Z,22.20
2018-09-03T16:35:44.178Z,22.20
2018-09-03T16:38:13.542Z,22.30
2018-09-03T16:40:42.868Z,22.40
2018-09-03T16:43:12.264Z,22.40
2018-09-03T16:45:41.621Z,22.50
2018-09-03T16:48:10.931Z,22.50
2018-09-03T16:50:40.196Z,22.50
2018-09-03T16:53:09.640Z,22.40
2018-09-03T16:55:38.961Z,22.30
2018-09-03T16:58:08.646Z,22.30
2018-09-03T17:00:37.876Z,22.20
2018-09-03T17:03:07.064Z,22.10
2018-09-03T17:05:36.138Z,22.10
2018-09-03T17:08:05.601Z,22.00
2018-09-03T17:10:34.668Z,22.00
2018-09-03T17:13:04.032Z,21.90
2018-09-03T17:15:33.236Z,21.90
2018-09-03T17:18:02.590Z,21.90
2018-09-03T17:20:31.935Z,21.80
2018-09-03T17:23:01.426Z,21.80
2018-09-03T17:25:30.900Z,21.90
2018-09-03T17:28:00.202Z,21.90
2018-09-03T17:30:29.712Z,21.90
2018-09-03T17:33:00.420Z,21.90
2018-09-03T17:35:29.468Z,21.80
2018-09-03T17:37:58.657Z,21.80
2018-09-03T17:40:27.956Z,21.70
2018-09-03T17:42:57.232Z,21.70
2018-09-03T17:45:26.382Z,21.60
2018-09-03T17:47:55.753Z,21.50
2018-09-03T17:50:25.204Z,21.40
2018-09-03T17:52:54.624Z,21.30
2018-09-03T17:55:23.874Z,21.30
2018-09-03T17:57:53.123Z,21.20
2018-09-03T18:00:22.490Z,21.20
2018-09-03T18:02:51.560Z,21.20
2018-09-03T18:05:20.987Z,21.10
2018-09-03T18:07:50.523Z,21.10
2018-09-03T18:10:19.657Z,21.10
2018-09-03T18:12:48.734Z,21.10
2018-09-03T18:15:18.029Z,21.00
2018-09-03T18:17:47.203Z,21.10
2018-09-03T18:20:16.466Z,21.00
2018-09-03T18:22:45.761Z,21.00
2018-09-03T18:25:14.896Z,20.90
2018-09-03T18:27:44.052Z,20.90
2018-09-03T18:30:13.587Z,20.90
2018-09-03T18:32:42.881Z,20.80
2018-09-03T18:35:11.998Z,20.80
2018-09-03T18:37:41.331Z,20.70
2018-09-03T18:40:10.455Z,20.70
2018-09-03T18:42:39.783Z,20.70
2018-09-03T18:45:09.496Z,20.60
2018-09-03T18:47:38.853Z,20.60
2018-09-03T18:50:10.267Z,20.60
2018-09-03T18:52:39.905Z,20.60
2018-09-03T18:55:09.605Z,20.50
2018-09-03T18:57:39.982Z,20.50
2018-09-03T19:00:10.482Z,20.50
2018-09-03T19:02:40.052Z,20.50
2018-09-03T19:05:09.455Z,20.40
2018-09-03T19:07:39.175Z,20.50
2018-09-03T19:10:08.756Z,20.40
2018-09-03T19:12:38.018Z,20.40
2018-09-03T19:15:07.888Z,20.40
2018-09-03T19:17:37.157Z,20.30
2018-09-03T19:20:06.412Z,20.30
2018-09-03T19:22:35.610Z,20.20
2018-09-03T19:25:04.923Z,20.20
2018-09-03T19:27:34.174Z,20.10
2018-09-03T19:30:03.456Z,20.00
2018-09-03T19:32:32.601Z,20.00
2018-09-03T19:35:01.835Z,20.00
2018-09-03T19:37:31.288Z,20.00
2018-09-03T19:40:00.538Z,19.90
2018-09-03T19:42:29.682Z,19.90
2018-09-03T19:44:58.962Z,19.90
2018-09-03T19:47:28.108Z,19.80
2018-09-03T19:49:57.225Z,19.80
2018-09-03T19:52:26.474Z,19.80
2018-09-03T19:54:55.640Z,19.80
2018-09-03T19:57:24.682Z,19.70
2018-09-03T19:59:54.226Z,19.70
2018-09-03T20:02:23.493Z,19.70
2018-09-03T20:04:52.655Z,19.60
2018-09-03T20:07:21.825Z,19.60
2018-09-03T20:09:50.997Z,19.60
2018-09-03T20:12:20.351Z,19.50
2018-09-03T20:14:49.592Z,19.50
2018-09-03T20:17:18.951Z,19.50
2018-09-03T20:19:47.949Z,19.50
2018-09-03T20:22:18.243Z,19.40
2018-09-03T20:24:47.368Z,19.40
2018-09-03T20:27:16.662Z,19.40
2018-09-03T20:29:45.860Z,19.40
2018-09-03T20:32:15.124Z,19.30
2018-09-03T20:34:44.199Z,19.30
2018-09-03T20:37:13.323Z,19.30
2018-09-03T20:39:42.436Z,19.30
2018-09-03T20:42:11.637Z,19.40
2018-09-03T20:44:40.749Z,19.50
2018-09-03T20:47:09.835Z,19.40
2018-09-03T20:49:39.137Z,19.40
2018-09-03T20:52:08.458Z,19.40
2018-09-03T20:54:37.526Z,19.30
2018-09-03T20:57:06.587Z,19.30
2018-09-03T20:59:35.764Z,19.30
2018-09-03T21:02:05.008Z,19.20
2018-09-03T21:04:34.251Z,19.20
2018-09-03T21:07:03.420Z,19.10
2018-09-03T21:09:32.635Z,19.10
2018-09-03T21:12:01.833Z,19.10
2018-09-03T21:14:31.254Z,19.00
2018-09-03T21:17:00.867Z,19.00
2018-09-03T21:19:30.016Z,19.00
2018-09-03T21:21:59.216Z,18.90
2018-09-03T21:24:28.296Z,18.90
2018-09-03T21:26:57.513Z,18.80
2018-09-03T21:29:26.743Z,18.80
2018-09-03T21:31:55.873Z,18.40
2018-09-03T21:34:24.969Z,18.60
2018-09-03T21:36:54.127Z,18.60
2018-09-03T21:39:23.438Z,18.50
2018-09-03T21:41:52.686Z,18.50
2018-09-03T21:44:22.204Z,18.40
2018-09-03T21:46:51.328Z,18.30
2018-09-03T21:49:20.539Z,18.30
2018-09-03T21:51:49.608Z,18.20
2018-09-03T21:54:18.823Z,18.20
2018-09-03T21:56:48.019Z,18.10
2018-09-03T21:59:17.421Z,18.00
2018-09-03T22:01:46.708Z,18.00
2018-09-03T22:04:15.942Z,18.00
2018-09-03T22:06:45.108Z,18.00
2018-09-03T22:09:14.468Z,18.00
2018-09-03T22:11:43.750Z,17.90
2018-09-03T22:14:12.791Z,17.90
2018-09-03T22:16:41.912Z,17.80
2018-09-03T22:19:11.334Z,17.80
2018-09-03T22:21:40.487Z,17.70
2018-09-03T22:24:10.142Z,17.70
2018-09-03T22:26:39.870Z,17.60
2018-09-03T22:29:09.223Z,17.50
2018-09-03T22:31:38.424Z,17.50
2018-09-03T22:34:07.679Z,17.40
2018-09-03T22:36:37.064Z,17.40
2018-09-03T22:39:07.032Z,17.30
2018-09-03T22:41:36.319Z,17.30
2018-09-03T22:44:05.398Z,17.20
2018-09-03T22:46:34.557Z,17.20
2018-09-03T22:49:03.688Z,17.20
2018-09-03T22:51:32.975Z,17.10
2018-09-03T22:54:02.271Z,17.10
2018-09-03T22:56:31.532Z,17.10
2018-09-03T22:59:00.820Z,17.10
2018-09-03T23:01:30.164Z,17.00
2018-09-03T23:03:59.379Z,17.00
2018-09-03T23:06:28.685Z,17.00
2018-09-03T23:08:58.048Z,17.00
2018-09-03T23:11:27.217Z,16.90
2018-09-03T23:13:56.444Z,16.90
2018-09-03T23:16:25.784Z,16.90
2018-09-03T23:18:55.079Z,16.90
2018-09-03T23:21:25.199Z,16.80
2018-09-03T23:23:54.305Z,16.80
2018-09-03T23:26:23.513Z,16.80
2018-09-03T23:28:52.551Z,16.80
2018-09-03T23:31:21.588Z,16.70
2018-09-03T23:33:50.949Z,16.70
2018-09-03T23:36:20.271Z,16.70
2018-09-03T23:38:49.318Z,16.70
2018-09-03T23:41:18.538Z,16.70
2018-09-03T23:43:47.840Z,16.70
2018-09-03T23:46:17.007Z,16.70
2018-09-03T23:48:46.336Z,16.60
2018-09-03T23:51:15.492Z,16.70
2018-09-03T23:53:44.708Z,16.70
2018-09-03T23:56:14.091Z,16.70
2018-09-03T23:58:43.492Z,16.80
